Time;durP1;ratioP1;P1;durP2;ratioP2;P2;SDS_P1;SDS_P2;PMS_P1;PMS_P2;Temp;Humidity;BMP_temperature;BMP_pressure;BME280_temperature;BME280_humidity;BME280_pressure;Samples;Min_cycle;Max_cycle;Signal;HPM_P1;HPM_P2
2023/11/01 00:00:33;;;;;;;2.17;0.70;;;13.50;99.90;;;;;;5062413;28;20255;-59
2023/11/01 00:03:00;;;;;;;2.87;0.83;;;13.50;99.90;;;;;;5065008;28;20282;-60
2023/11/01 00:05:27;;;;;;;3.30;0.87;;;13.50;99.90;;;;;;5065217;28;20296;-60
2023/11/01 00:07:53;;;;;;;2.20;0.83;;;13.60;99.90;;;;;;5053445;28;20202;-59
2023/11/01 00:10:20;;;;;;;2.10;0.77;;;13.60;99.90;;;;;;5061730;28;20205;-60
2023/11/01 00:12:47;;;;;;;1.43;0.70;;;13.60;99.90;;;;;;5063473;28;20248;-60
2023/11/01 00:15:15;;;;;;;3.20;0.90;;;13.70;99.90;;;;;;5064761;28;20209;-59
2023/11/01 00:17:42;;;;;;;2.57;0.77;;;13.60;99.90;;;;;;5062982;28;20200;-59
2023/11/01 00:20:10;;;;;;;1.67;0.80;;;13.60;99.90;;;;;;5061670;28;20201;-60
2023/11/01 00:22:36;;;;;;;2.77;0.90;;;13.70;99.90;;;;;;5062002;28;20726;-61
2023/11/01 00:25:03;;;;;;;2.97;0.70;;;13.80;99.90;;;;;;5064715;28;20228;-61
2023/11/01 00:27:31;;;;;;;2.83;0.80;;;13.80;99.90;;;;;;5064139;28;20224;-60
2023/11/01 00:29:58;;;;;;;4.77;0.93;;;13.70;99.90;;;;;;5061351;28;20213;-60
2023/11/01 00:32:26;;;;;;;1.77;1.00;;;13.70;99.90;;;;;;5061130;28;20278;-61
2023/11/01 00:34:53;;;;;;;3.77;1.27;;;13.80;99.90;;;;;;5064418;28;20208;-60
2023/11/01 00:37:20;;;;;;;2.90;0.97;;;13.80;99.90;;;;;;5064725;28;20264;-60
2023/11/01 00:39:47;;;;;;;3.27;1.00;;;13.80;99.90;;;;;;5061289;28;20586;-60
2023/11/01 00:42:13;;;;;;;2.97;0.80;;;13.80;99.90;;;;;;5060615;28;20228;-60
2023/11/01 00:44:40;;;;;;;2.60;0.90;;;13.80;99.90;;;;;;5062296;28;20212;-60
2023/11/01 00:47:07;;;;;;;1.80;0.90;;;13.80;99.90;;;;;;5064101;28;20205;-60
2023/11/01 00:49:35;;;;;;;1.87;1.00;;;13.80;99.90;;;;;;5063725;28;20207;-60
2023/11/01 00:52:01;;;;;;;4.40;1.20;;;13.80;99.90;;;;;;5060236;28;20645;-61
2023/11/01 00:54:28;;;;;;;2.50;0.97;;;13.70;99.90;;;;;;5060784;28;20201;-60
2023/11/01 00:56:54;;;;;;;2.00;0.80;;;13.70;99.90;;;;;;5052282;28;20280;-59
2023/11/01 00:59:21;;;;;;;2.83;0.93;;;13.70;99.90;;;;;;5060736;28;20201;-60
2023/11/01 01:01:48;;;;;;;3.87;0.90;;;13.70;99.90;;;;;;5062824;28;20205;-60
2023/11/01 01:04:14;;;;;;;3.13;0.80;;;13.70;99.90;;;;;;5063983;28;20311;-59
2023/11/01 01:06:42;;;;;;;5.47;1.57;;;13.70;99.90;;;;;;5062109;28;20209;-60
2023/11/01 01:09:12;;;;;;;4.03;1.03;;;13.70;99.90;;;;;;5060314;28;20583;-60
2023/11/01 01:11:38;;;;;;;1.20;0.70;;;13.70;99.90;;;;;;5061207;28;20279;-60
2023/11/01 01:14:05;;;;;;;3.63;1.00;;;13.70;99.90;;;;;;5063738;28;20208;-60
2023/11/01 01:16:32;;;;;;;1.60;0.93;;;13.60;99.90;;;;;;5063373;28;20197;-60
2023/11/01 01:18:58;;;;;;;1.80;0.80;;;13.70;99.90;;;;;;5060277;28;20205;-61
2023/11/01 01:21:25;;;;;;;2.30;1.10;;;13.60;99.90;;;;;;5060049;28;20201;-60
2023/11/01 01:23:53;;;;;;;4.10;0.90;;;13.70;99.90;;;;;;5062959;28;20224;-60
2023/11/01 01:26:20;;;;;;;1.27;0.70;;;13.70;99.90;;;;;;5063823;28;20205;-60
2023/11/01 01:28:46;;;;;;;2.23;0.80;;;13.70;99.90;;;;;;5061535;28;20218;-61
2023/11/01 01:31:13;;;;;;;3.70;1.10;;;13.70;99.90;;;;;;5059859;28;20208;-61
2023/11/01 01:33:44;;;;;;;2.67;0.80;;;13.80;99.90;;;;;;5061110;28;20275;-60
2023/11/01 01:36:10;;;;;;;3.93;1.07;;;13.70;99.90;;;;;;5063329;28;20234;-60
2023/11/01 01:38:37;;;;;;;2.20;1.10;;;13.70;99.90;;;;;;5062348;28;20212;-60
2023/11/01 01:41:06;;;;;;;4.13;1.17;;;13.80;99.90;;;;;;5060059;28;20228;-60
2023/11/01 01:43:32;;;;;;;2.67;0.97;;;13.80;99.90;;;;;;5060125;28;20218;-61
2023/11/01 01:46:07;;;;;;;3.80;0.93;;;13.70;99.90;;;;;;5063329;28;20582;-60
2023/11/01 01:48:35;;;;;;;1.33;0.70;;;13.80;99.90;;;;;;5062591;28;20201;-60
2023/11/01 01:51:02;;;;;;;1.10;0.63;;;13.80;99.90;;;;;;5058655;28;20284;-60
2023/11/01 01:53:29;;;;;;;6.20;1.13;;;13.70;99.90;;;;;;5059684;28;20702;-61
2023/11/01 01:55:57;;;;;;;1.93;0.90;;;13.80;99.90;;;;;;5051587;28;20205;-60
2023/11/01 01:58:27;;;;;;;2.80;0.87;;;13.70;99.90;;;;;;5059642;28;20201;-60
2023/11/01 02:00:56;;;;;;;5.07;0.87;;;13.70;99.90;;;;;;5062501;28;20693;-60
2023/11/01 02:03:23;;;;;;;2.00;1.17;;;13.70;99.90;;;;;;5062902;28;20224;-61
2023/11/01 02:05:50;;;;;;;1.73;0.70;;;13.70;99.90;;;;;;5060582;28;20246;-59
2023/11/01 02:08:17;;;;;;;4.30;1.00;;;13.80;99.90;;;;;;5059800;28;20208;-61
2023/11/01 02:10:44;;;;;;;10.47;1.10;;;13.80;99.90;;;;;;5059728;28;20210;-61
2023/11/01 02:13:11;;;;;;;2.40;0.93;;;13.70;99.90;;;;;;5058987;28;20236;-60
2023/11/01 02:15:39;;;;;;;1.77;0.80;;;13.70;99.90;;;;;;5060298;28;20237;-61
2023/11/01 02:18:06;;;;;;;2.00;0.80;;;13.70;99.90;;;;;;5062842;28;20224;-60
2023/11/01 02:20:35;;;;;;;2.10;0.70;;;13.70;99.90;;;;;;5062646;28;20228;-60
2023/11/01 02:23:01;;;;;;;2.30;1.00;;;13.60;99.90;;;;;;5059186;28;20267;-61
2023/11/01 02:25:29;;;;;;;2.33;1.00;;;13.50;99.90;;;;;;5059333;28;20212;-60
2023/11/01 02:27:56;;;;;;;3.40;0.80;;;13.50;99.90;;;;;;5062461;28;20583;-60
2023/11/01 02:30:24;;;;;;;5.57;1.17;;;13.50;99.90;;;;;;5062610;28;20650;-60
2023/11/01 02:32:51;;;;;;;2.23;0.90;;;13.50;99.90;;;;;;5059663;28;20224;-61
2023/11/01 02:35:18;;;;;;;2.17;1.00;;;13.40;99.90;;;;;;5059415;28;20209;-61
2023/11/01 02:37:45;;;;;;;2.17;0.90;;;13.30;99.90;;;;;;5060790;28;20718;-60
2023/11/01 02:40:12;;;;;;;2.20;1.00;;;13.30;99.90;;;;;;5062661;28;20590;-61
2023/11/01 02:42:42;;;;;;;5.10;1.10;;;13.30;99.90;;;;;;5061641;28;20706;-60
2023/11/01 02:45:09;;;;;;;2.20;0.80;;;13.30;99.90;;;;;;5059312;28;20202;-61
2023/11/01 02:47:36;;;;;;;3.57;0.90;;;13.20;99.90;;;;;;5059578;28;20240;-61
2023/11/01 02:50:03;;;;;;;2.17;0.87;;;13.10;99.90;;;;;;5062658;28;20295;-60
2023/11/01 02:52:30;;;;;;;3.13;1.10;;;13.10;99.90;;;;;;5062106;28;20724;-61
2023/11/01 02:54:57;;;;;;;3.17;1.13;;;13.10;99.90;;;;;;5058974;28;20201;-59
2023/11/01 02:57:23;;;;;;;1.80;0.70;;;13.00;99.90;;;;;;5058874;28;20198;-60
2023/11/01 02:59:51;;;;;;;3.00;0.70;;;12.90;99.90;;;;;;5061219;28;20637;-60
2023/11/01 03:02:18;;;;;;;2.33;0.90;;;12.90;99.90;;;;;;5063789;28;20645;-60
2023/11/01 03:04:46;;;;;;;3.67;1.00;;;12.90;99.90;;;;;;5064610;28;20209;-60
2023/11/01 03:07:12;;;;;;;2.60;0.83;;;12.90;99.90;;;;;;5062741;28;20202;-61
2023/11/01 03:09:39;;;;;;;4.30;1.17;;;12.90;99.90;;;;;;5063332;28;20202;-60
2023/11/01 03:12:06;;;;;;;2.17;0.70;;;12.90;99.90;;;;;;5065511;28;20228;-61
2023/11/01 03:14:33;;;;;;;3.33;0.93;;;12.90;99.90;;;;;;5066220;28;20685;-60
2023/11/01 03:17:01;;;;;;;3.33;1.67;;;12.90;99.90;;;;;;5054481;28;20201;-61
2023/11/01 03:19:28;;;;;;;3.77;1.50;;;12.90;99.90;;;;;;5062459;28;20202;-61
2023/11/01 03:21:54;;;;;;;3.53;0.97;;;13.00;99.90;;;;;;5065000;28;20224;-61
2023/11/01 03:24:21;;;;;;;2.00;0.60;;;13.00;99.90;;;;;;5065908;28;20231;-61
2023/11/01 03:26:48;;;;;;;3.77;0.80;;;13.00;99.90;;;;;;5063515;28;20632;-61
2023/11/01 03:29:14;;;;;;;5.10;0.77;;;13.10;99.90;;;;;;5062385;28;20202;-61
2023/11/01 03:31:41;;;;;;;5.33;1.10;;;13.10;99.90;;;;;;5062892;28;20214;-61
2023/11/01 03:34:09;;;;;;;1.87;0.93;;;13.20;99.90;;;;;;5065733;28;20212;-61
2023/11/01 03:36:36;;;;;;;1.33;0.83;;;13.20;99.90;;;;;;5065184;28;20201;-61
2023/11/01 03:39:04;;;;;;;2.10;0.90;;;13.30;99.90;;;;;;5061973;28;20288;-61
2023/11/01 03:41:31;;;;;;;1.40;0.70;;;13.20;99.90;;;;;;5061871;28;20217;-60
2023/11/01 03:43:59;;;;;;;2.10;0.77;;;13.20;99.90;;;;;;5065242;28;20220;-60
2023/11/01 03:46:25;;;;;;;2.70;1.00;;;13.20;99.90;;;;;;5065453;28;20212;-60
2023/11/01 03:48:52;;;;;;;1.70;0.60;;;13.10;99.90;;;;;;5062861;28;20205;-60
2023/11/01 03:51:20;;;;;;;1.90;0.83;;;13.20;99.90;;;;;;5061811;28;20198;-61
2023/11/01 03:53:47;;;;;;;2.33;0.80;;;13.10;99.90;;;;;;5063213;28;20587;-60
2023/11/01 03:56:13;;;;;;;1.83;0.93;;;13.10;99.90;;;;;;5065114;28;20622;-60
2023/11/01 03:58:40;;;;;;;2.00;0.80;;;13.10;99.90;;;;;;5064553;28;20220;-61
2023/11/01 04:01:07;;;;;;;3.43;0.77;;;13.10;99.90;;;;;;5061971;28;20210;-61
2023/11/01 04:03:34;;;;;;;2.30;0.87;;;13.00;99.90;;;;;;5061787;28;20249;-61
2023/11/01 04:06:01;;;;;;;2.57;0.83;;;13.10;99.90;;;;;;5053669;28;20220;-61
2023/11/01 04:08:29;;;;;;;2.03;0.90;;;13.00;99.90;;;;;;5061365;28;20197;-61
2023/11/01 04:10:56;;;;;;;2.47;1.00;;;13.00;99.90;;;;;;5064297;28;20217;-60
2023/11/01 04:13:22;;;;;;;4.57;1.00;;;12.90;99.90;;;;;;5064045;28;20274;-63
2023/11/01 04:15:49;;;;;;;3.03;1.10;;;12.90;99.90;;;;;;5062868;28;20747;-62
2023/11/01 04:18:16;;;;;;;7.63;1.23;;;12.90;99.90;;;;;;5061474;28;20202;-61
2023/11/01 04:20:43;;;;;;;4.70;0.63;;;12.90;99.90;;;;;;5062291;28;20205;-62
2023/11/01 04:23:10;;;;;;;2.13;0.83;;;12.90;99.90;;;;;;5064347;28;20632;-61
2023/11/01 04:25:38;;;;;;;5.00;0.97;;;12.80;99.90;;;;;;5064585;28;20197;-60
2023/11/01 04:28:06;;;;;;;2.60;0.93;;;12.70;99.90;;;;;;5061370;28;20625;-61
2023/11/01 04:30:38;;;;;;;2.00;1.00;;;12.70;99.90;;;;;;5061289;28;20240;-62
2023/11/01 04:33:06;;;;;;;3.53;0.83;;;12.70;99.90;;;;;;5053148;28;20221;-62
2023/11/01 04:35:33;;;;;;;2.03;0.73;;;12.70;99.90;;;;;;5061097;28;20213;-62
2023/11/01 04:38:00;;;;;;;3.93;0.90;;;12.70;99.90;;;;;;5064389;28;20201;-62
2023/11/01 04:40:27;;;;;;;2.67;0.90;;;12.70;99.90;;;;;;5064465;28;20270;-61
2023/11/01 04:42:55;;;;;;;2.70;0.80;;;12.70;99.90;;;;;;5061655;28;20580;-61
2023/11/01 04:45:23;;;;;;;3.03;1.13;;;12.80;99.90;;;;;;5060970;28;20209;-62
2023/11/01 04:47:50;;;;;;;1.67;0.67;;;12.80;99.90;;;;;;5062423;28;20264;-62
2023/11/01 04:50:18;;;;;;;3.67;0.80;;;12.80;99.90;;;;;;5064324;28;20201;-62
2023/11/01 04:52:45;;;;;;;3.40;1.27;;;12.80;99.90;;;;;;5062533;28;20589;-61
2023/11/01 04:55:12;;;;;;;1.67;1.10;;;12.80;99.90;;;;;;5060920;28;20216;-62
2023/11/01 04:57:39;;;;;;;3.03;0.90;;;12.80;99.90;;;;;;5060991;28;20642;-62
2023/11/01 05:00:11;;;;;;;2.53;1.00;;;12.80;99.90;;;;;;5064303;28;20255;-61
2023/11/01 05:02:38;;;;;;;3.07;0.70;;;12.70;99.90;;;;;;5064147;28;20225;-62
2023/11/01 05:05:06;;;;;;;4.63;1.30;;;12.60;99.90;;;;;;5060665;28;20292;-61
2023/11/01 05:07:32;;;;;;;3.03;0.90;;;12.50;99.90;;;;;;5060629;28;20210;-62
2023/11/01 05:09:59;;;;;;;5.23;1.23;;;12.40;99.90;;;;;;5063572;28;20205;-60
2023/11/01 05:12:26;;;;;;;5.03;1.00;;;12.30;99.90;;;;;;5063585;28;20232;-61
2023/11/01 05:14:53;;;;;;;2.17;0.90;;;12.20;99.90;;;;;;5061372;28;20706;-61
2023/11/01 05:17:21;;;;;;;2.23;0.93;;;12.10;99.90;;;;;;5060402;28;20209;-62
2023/11/01 05:19:48;;;;;;;2.80;0.90;;;12.10;99.90;;;;;;5061582;28;20217;-62
2023/11/01 05:22:14;;;;;;;2.53;0.87;;;11.90;99.90;;;;;;5063160;28;20597;-62
2023/11/01 05:24:44;;;;;;;5.00;2.20;;;11.90;99.90;;;;;;5062872;28;20204;-62
2023/11/01 05:27:11;;;;;;;1.63;0.70;;;11.90;99.90;;;;;;5060138;28;20589;-61
2023/11/01 05:29:37;;;;;;;4.77;2.23;;;11.90;99.90;;;;;;5060389;28;20224;-60
2023/11/01 05:32:05;;;;;;;5.97;0.90;;;11.90;99.90;;;;;;5063399;28;20235;-60
2023/11/01 05:34:33;;;;;;;3.53;0.97;;;11.80;99.90;;;;;;5063449;28;20299;-59
2023/11/01 05:37:00;;;;;;;4.10;1.67;;;11.70;99.90;;;;;;5060223;28;20209;-62
2023/11/01 05:39:26;;;;;;;8.43;2.50;;;11.70;99.90;;;;;;5059924;28;20205;-62
2023/11/01 05:41:53;;;;;;;3.67;1.30;;;11.80;99.90;;;;;;5061692;28;20212;-62
2023/11/01 05:44:20;;;;;;;3.23;1.20;;;11.70;99.90;;;;;;5063357;28;20197;-62
2023/11/01 05:46:47;;;;;;;4.17;1.40;;;11.70;99.90;;;;;;5062292;28;20215;-62
2023/11/01 05:49:14;;;;;;;2.00;1.07;;;11.70;99.90;;;;;;5059847;28;20213;-62
2023/11/01 05:51:42;;;;;;;2.77;1.27;;;11.50;99.90;;;;;;5059657;28;20701;-61
2023/11/01 05:54:09;;;;;;;2.63;0.90;;;11.50;99.90;;;;;;5062995;28;20628;-62
2023/11/01 05:56:35;;;;;;;4.20;1.40;;;11.40;99.90;;;;;;5063219;28;20209;-62
2023/11/01 05:59:03;;;;;;;5.43;1.40;;;11.40;99.90;;;;;;5059504;28;20686;-61
2023/11/01 06:01:30;;;;;;;3.23;1.47;;;11.40;99.90;;;;;;5059251;28;20687;-62
2023/11/01 06:04:00;;;;;;;3.50;1.60;;;11.40;99.90;;;;;;5062073;28;20607;-61
2023/11/01 06:06:27;;;;;;;4.47;1.73;;;11.40;99.90;;;;;;5063079;28;20205;-61
2023/11/01 06:08:55;;;;;;;4.67;1.77;;;11.20;99.90;;;;;;5060791;28;20211;-62
2023/11/01 06:11:22;;;;;;;4.73;1.33;;;11.70;99.90;;;;;;5059107;28;20576;-61
2023/11/01 06:13:50;;;;;;;5.00;1.50;;;11.10;99.90;;;;;;5060862;28;20320;-61
2023/11/01 06:16:17;;;;;;;3.70;1.60;;;11.10;99.90;;;;;;5063039;28;20205;-62
2023/11/01 06:18:44;;;;;;;6.53;1.70;;;11.00;99.90;;;;;;5062046;28;20208;-62
2023/11/01 06:21:11;;;;;;;4.90;2.03;;;10.90;99.90;;;;;;5059234;28;20209;-62
2023/11/01 06:23:37;;;;;;;4.73;1.40;;;10.70;99.90;;;;;;5059317;28;20236;-62
2023/11/01 06:26:06;;;;;;;3.27;1.00;;;10.60;99.90;;;;;;5051388;28;20296;-61
2023/11/01 06:28:34;;;;;;;5.73;1.40;;;10.50;99.90;;;;;;5059438;28;20210;-62
2023/11/01 06:31:00;;;;;;;1.57;1.20;;;10.60;99.90;;;;;;5061905;28;20690;-61
2023/11/01 06:33:27;;;;;;;4.27;1.47;;;10.60;99.90;;;;;;5062567;28;20234;-61
2023/11/01 06:35:54;;;;;;;6.07;1.50;;;10.60;99.90;;;;;;5060747;28;20209;-61
2023/11/01 06:38:21;;;;;;;3.93;1.50;;;10.60;99.90;;;;;;5062476;28;20202;-62
2023/11/01 06:40:48;;;;;;;6.17;1.40;;;10.60;99.90;;;;;;5064102;28;20697;-61
2023/11/01 06:43:16;;;;;;;3.03;1.10;;;10.70;99.90;;;;;;5066439;28;20315;-62
2023/11/01 06:45:42;;;;;;;3.60;1.30;;;10.80;99.90;;;;;;5066275;28;20423;-62
2023/11/01 06:48:11;;;;;;;2.73;1.13;;;11.10;99.90;;;;;;5063103;28;20247;-58
2023/11/01 06:50:40;;;;;;;2.03;1.20;;;11.60;99.90;;;;;;5063028;28;20351;-61
2023/11/01 06:53:06;;;;;;;5.00;1.43;;;12.10;99.90;;;;;;5054850;28;20221;-61
2023/11/01 06:55:33;;;;;;;2.67;1.20;;;12.40;99.90;;;;;;5063222;28;20438;-62
2023/11/01 06:58:00;;;;;;;5.50;1.40;;;12.40;99.90;;;;;;5065716;28;20205;-63
2023/11/01 07:00:28;;;;;;;2.47;1.20;;;12.30;99.90;;;;;;5066290;28;20655;-61
2023/11/01 07:02:54;;;;;;;2.27;1.00;;;12.10;99.90;;;;;;5063897;28;20225;-62
2023/11/01 07:05:21;;;;;;;3.47;0.90;;;12.00;99.90;;;;;;5062625;28;20205;-62
2023/11/01 07:07:48;;;;;;;2.07;1.03;;;11.90;99.90;;;;;;5063941;28;20210;-62
2023/11/01 07:10:16;;;;;;;3.27;1.20;;;11.90;99.90;;;;;;5066441;28;20209;-61
2023/11/01 07:12:43;;;;;;;2.17;1.20;;;11.80;99.90;;;;;;5065689;28;20286;-61
2023/11/01 07:15:10;;;;;;;2.17;1.17;;;11.70;99.90;;;;;;5062586;28;20217;-61
2023/11/01 07:17:38;;;;;;;4.00;1.07;;;11.70;99.90;;;;;;5062606;28;20236;-62
2023/11/01 07:20:06;;;;;;;2.10;1.10;;;11.70;99.90;;;;;;5065760;28;20201;-63
2023/11/01 07:22:33;;;;;;;3.73;1.40;;;11.70;99.90;;;;;;5065795;28;20243;-61
2023/11/01 07:25:00;;;;;;;2.93;0.93;;;11.80;99.90;;;;;;5063536;28;20236;-63
2023/11/01 07:27:27;;;;;;;2.20;0.90;;;11.80;99.90;;;;;;5063122;28;20209;-64
2023/11/01 07:29:53;;;;;;;2.70;1.00;;;11.80;99.90;;;;;;5064714;28;20297;-61
2023/11/01 07:32:20;;;;;;;3.90;1.03;;;12.00;99.90;;;;;;5065557;28;20244;-62
2023/11/01 07:34:48;;;;;;;2.73;1.33;;;12.20;99.90;;;;;;5064655;28;20217;-60
2023/11/01 07:37:15;;;;;;;4.73;1.40;;;12.30;99.90;;;;;;5062511;28;20205;-60
2023/11/01 07:39:41;;;;;;;6.13;1.23;;;12.30;99.90;;;;;;5062256;28;20209;-61
2023/11/01 07:42:08;;;;;;;2.90;1.70;;;12.40;99.90;;;;;;5065384;28;20224;-60
2023/11/01 07:44:35;;;;;;;3.07;2.10;;;12.50;99.90;;;;;;5065324;28;20205;-61
2023/11/01 07:47:01;;;;;;;3.90;1.70;;;12.70;99.90;;;;;;5062527;28;20296;-60
2023/11/01 07:49:28;;;;;;;3.23;1.50;;;12.70;99.90;;;;;;5060267;28;20671;-60
2023/11/01 07:51:57;;;;;;;3.57;1.60;;;12.80;99.90;;;;;;5063468;28;20201;-59
2023/11/01 07:54:23;;;;;;;2.90;1.60;;;13.00;99.90;;;;;;5064918;28;20709;-60
2023/11/01 07:56:50;;;;;;;3.53;1.60;;;13.20;99.90;;;;;;5063975;28;20212;-60
2023/11/01 07:59:17;;;;;;;2.73;1.50;;;13.30;99.90;;;;;;5061678;28;20214;-60
2023/11/01 08:01:43;;;;;;;2.23;1.20;;;13.40;99.90;;;;;;5061433;28;20213;-62
2023/11/01 08:04:10;;;;;;;2.90;1.37;;;13.60;99.90;;;;;;5065051;28;20204;-59
2023/11/01 08:06:37;;;;;;;1.57;1.03;;;13.70;99.90;;;;;;5064969;28;20212;-59
2023/11/01 08:09:06;;;;;;;1.80;1.27;;;13.80;99.90;;;;;;5062187;28;20240;-59
2023/11/01 08:11:32;;;;;;;3.00;0.90;;;13.90;99.90;;;;;;5061214;28;20213;-60
2023/11/01 08:13:59;;;;;;;4.67;1.43;;;14.00;99.90;;;;;;5063334;28;20222;-60
2023/11/01 08:16:26;;;;;;;3.57;1.13;;;14.00;99.90;;;;;;5064839;28;20205;-60
2023/11/01 08:18:53;;;;;;;4.40;1.37;;;14.10;99.90;;;;;;5063106;28;20660;-59
2023/11/01 08:21:19;;;;;;;4.00;1.10;;;14.20;99.90;;;;;;5061143;28;20667;-59
2023/11/01 08:23:46;;;;;;;15.00;8.80;;;14.20;99.90;;;;;;5061280;28;20228;-59
2023/11/01 08:26:19;;;;;;;3.67;2.13;;;14.40;99.90;;;;;;5064573;28;20205;-61
2023/11/01 08:28:46;;;;;;;2.93;1.63;;;14.40;99.90;;;;;;5064101;28;20598;-59
2023/11/01 08:31:12;;;;;;;1.53;0.80;;;14.50;99.90;;;;;;5061066;28;20206;-60
2023/11/01 08:33:40;;;;;;;1.23;0.77;;;14.50;99.90;;;;;;5060942;28;20226;-59
2023/11/01 08:36:07;;;;;;;2.03;0.73;;;14.50;99.90;;;;;;5064314;28;20227;-60
2023/11/01 08:38:34;;;;;;;3.73;1.33;;;14.40;99.90;;;;;;5064211;28;20210;-59
2023/11/01 08:41:01;;;;;;;5.53;1.13;;;14.40;99.90;;;;;;5061682;28;20205;-60
2023/11/01 08:43:29;;;;;;;4.17;1.10;;;14.50;99.90;;;;;;5060501;28;20279;-59
2023/11/01 08:45:55;;;;;;;2.97;0.80;;;14.60;99.90;;;;;;5062712;28;20209;-60
2023/11/01 08:48:22;;;;;;;2.10;1.10;;;14.70;99.90;;;;;;5064203;28;20216;-60
2023/11/01 08:50:49;;;;;;;3.07;0.97;;;14.70;99.90;;;;;;5063360;28;20233;-60
2023/11/01 08:53:16;;;;;;;4.10;1.20;;;14.80;99.90;;;;;;5060471;28;20244;-58
2023/11/01 08:55:42;;;;;;;4.20;1.00;;;14.90;99.90;;;;;;5060562;28;20300;-58
2023/11/01 08:58:09;;;;;;;1.10;0.80;;;15.10;99.90;;;;;;5052343;28;20205;-60
2023/11/01 09:00:37;;;;;;;3.20;0.83;;;15.10;99.90;;;;;;5060223;28;20209;-60
2023/11/01 09:03:04;;;;;;;2.07;1.23;;;15.20;99.90;;;;;;5062806;28;20229;-60
2023/11/01 09:05:31;;;;;;;6.03;1.10;;;15.30;99.90;;;;;;5063877;28;20208;-59
2023/11/01 09:07:58;;;;;;;3.83;1.20;;;15.40;99.90;;;;;;5061718;28;20209;-59
2023/11/01 09:10:25;;;;;;;2.20;1.20;;;15.40;99.90;;;;;;5060158;28;20205;-60
2023/11/01 09:12:51;;;;;;;1.90;1.00;;;15.60;99.90;;;;;;5060763;28;20233;-60
2023/11/01 09:15:18;;;;;;;2.17;1.17;;;15.60;99.90;;;;;;5063491;28;20217;-59
2023/11/01 09:17:46;;;;;;;2.33;1.13;;;15.50;99.90;;;;;;5063367;28;20205;-59
2023/11/01 09:20:13;;;;;;;2.40;1.20;;;15.50;99.90;;;;;;5060295;28;20230;-59
2023/11/01 09:22:40;;;;;;;3.53;1.20;;;15.60;99.90;;;;;;5059986;28;20247;-59
2023/11/01 09:25:08;;;;;;;3.03;1.03;;;15.70;99.90;;;;;;5063018;28;20244;-59
2023/11/01 09:27:34;;;;;;;2.85;0.88;;;15.80;99.90;;;;;;5063434;28;20209;-59
2023/11/01 09:30:01;;;;;;;1.80;0.77;;;15.90;99.90;;;;;;5060961;28;20216;-59
2023/11/01 09:32:28;;;;;;;1.70;1.07;;;16.00;99.90;;;;;;5059692;28;20225;-59
2023/11/01 09:34:56;;;;;;;2.25;0.70;;;16.00;99.90;;;;;;5061061;28;20241;-59
2023/11/01 09:37:23;;;;;;;2.47;0.80;;;16.10;99.90;;;;;;5063270;28;20287;-59
2023/11/01 09:39:50;;;;;;;0.90;0.55;;;16.30;99.90;;;;;;5062319;28;20208;-60
2023/11/01 09:42:20;;;;;;;2.55;0.90;;;16.40;99.90;;;;;;5059796;28;20229;-60
2023/11/01 09:44:49;;;;;;;1.35;0.80;;;16.60;99.90;;;;;;5059863;28;20229;-59
2023/11/01 09:47:17;;;;;;;1.60;0.82;;;16.80;99.90;;;;;;5063228;28;20322;-60
2023/11/01 09:49:45;;;;;;;3.08;0.80;;;17.00;99.90;;;;;;5063076;28;20231;-59
2023/11/01 09:52:13;;;;;;;1.08;0.70;;;17.10;99.90;;;;;;5051749;28;20222;-59
2023/11/01 09:54:40;;;;;;;1.08;0.50;;;17.30;99.90;;;;;;5060082;28;20225;-59
2023/11/01 09:57:11;;;;;;;3.53;1.13;;;17.40;99.90;;;;;;5062537;28;20542;-59
2023/11/01 09:59:39;;;;;;;0.88;0.50;;;17.50;99.90;;;;;;5062935;28;20196;-59
2023/11/01 10:02:08;;;;;;;4.72;0.82;;;17.70;99.90;;;;;;5060166;28;20225;-60
2023/11/01 10:04:35;;;;;;;1.30;0.65;;;17.90;99.90;;;;;;5059705;28;20198;-60
2023/11/01 10:07:02;;;;;;;2.97;0.70;;;18.10;99.90;;;;;;5061933;28;20295;-60
2023/11/01 10:09:30;;;;;;;2.53;0.73;;;18.20;99.90;;;;;;5063183;28;20201;-59
2023/11/01 10:14:30;;;;;;;1.92;0.80;;;18.50;99.90;;;;;;5072783;22;20720;-55
2023/11/01 10:16:58;;;;;;;1.60;0.63;;;18.50;99.90;;;;;;5051039;28;20270;-55
2023/11/01 10:19:25;;;;;;;2.17;0.70;;;18.60;99.90;;;;;;5051198;28;20213;-55
2023/11/01 10:21:52;;;;;;;2.42;0.70;;;18.70;99.90;;;;;;5051076;28;20244;-57
2023/11/01 10:24:19;;;;;;;1.70;1.15;;;18.90;99.90;;;;;;5042510;28;20256;-54
2023/11/01 10:26:47;;;;;;;3.30;1.10;;;18.90;99.90;;;;;;5042684;28;20297;-55
2023/11/01 10:29:14;;;;;;;2.10;1.20;;;19.00;99.90;;;;;;5031367;28;20205;-55
2023/11/01 10:31:40;;;;;;;2.03;0.85;;;19.00;99.90;;;;;;5038799;28;20228;-54
2023/11/01 10:34:13;;;;;;;2.67;0.77;;;18.90;99.90;;;;;;5041636;28;20226;-54
2023/11/01 10:36:51;;;;;;;1.60;0.80;;;18.90;99.90;;;;;;5042364;28;20868;-53
2023/11/01 10:39:19;;;;;;;5.03;0.90;;;18.90;99.90;;;;;;5031890;28;20202;-54
2023/11/01 10:41:50;;;;;;;3.65;0.80;;;18.90;99.90;;;;;;5039004;28;20716;-54
2023/11/01 10:44:18;;;;;;;1.65;0.60;;;18.90;99.90;;;;;;5031823;28;20222;-54
2023/11/01 10:46:45;;;;;;;1.63;0.90;;;18.90;99.90;;;;;;5039340;28;20293;-55
2023/11/01 10:49:12;;;;;;;2.67;0.63;;;19.00;99.90;;;;;;5042739;28;20599;-54
2023/11/01 10:51:41;;;;;;;2.15;0.90;;;19.00;99.90;;;;;;5042303;28;20245;-55
2023/11/01 10:54:08;;;;;;;3.35;1.10;;;19.00;99.90;;;;;;5039709;28;20226;-55
2023/11/01 10:56:35;;;;;;;1.38;0.80;;;19.00;99.90;;;;;;5038588;28;20219;-55
2023/11/01 10:59:10;;;;;;;2.50;1.00;;;19.00;99.90;;;;;;5040291;28;20233;-55
2023/11/01 11:01:40;;;;;;;1.45;0.90;;;19.00;99.90;;;;;;5042184;28;20228;-54
2023/11/01 11:04:20;;;;;;;1.65;0.80;;;19.10;99.90;;;;;;5039482;28;20232;-54
2023/11/01 11:06:55;;;;;;;1.80;0.80;;;19.10;99.90;;;;;;5038884;28;20206;-56
2023/11/01 11:09:23;;;;;;;1.55;0.82;;;19.10;99.90;;;;;;5031640;28;20206;-54
2023/11/01 11:12:19;;;;;;;2.78;0.90;;;19.00;99.90;;;;;;5038829;28;20206;-55
2023/11/01 11:14:48;;;;;;;1.30;1.00;;;19.10;99.90;;;;;;5042046;28;20202;-55
2023/11/01 11:17:16;;;;;;;2.17;0.90;;;19.10;99.90;;;;;;5030667;28;20198;-54
2023/11/01 11:20:10;;;;;;;2.08;0.82;;;19.20;99.90;;;;;;5039005;28;20218;-55
2023/11/01 11:23:11;;;;;;;2.40;1.60;;;19.20;99.90;;;;;;5033940;28;20603;-55
2023/11/01 11:25:49;;;;;;;1.40;0.90;;;19.30;99.90;;;;;;5037482;28;20201;-55
2023/11/01 11:28:46;;;;;;;2.63;0.80;;;19.30;99.90;;;;;;5034659;28;20631;-55
2023/11/01 11:31:17;;;;;;;1.65;0.90;;;19.30;99.90;;;;;;5044889;28;20244;-55
2023/11/01 11:34:13;;;;;;;2.33;0.63;;;19.40;99.90;;;;;;5045880;28;20316;-55
2023/11/01 11:37:08;;;;;;;2.10;0.70;;;19.40;99.90;;;;;;5045835;28;20275;-53
2023/11/01 11:39:55;;;;;;;2.15;0.80;;;19.50;99.90;;;;;;5037190;28;20482;-55
2023/11/01 11:42:49;;;;;;;2.00;0.90;;;19.50;99.90;;;;;;5034620;28;20296;-54
2023/11/01 11:45:26;;;;;;;1.73;0.90;;;19.60;99.90;;;;;;5033874;28;20248;-54
2023/11/01 11:47:55;;;;;;;2.78;0.68;;;19.70;99.90;;;;;;5042170;28;20676;-54
2023/11/01 11:50:22;;;;;;;1.63;0.70;;;19.60;99.90;;;;;;5045376;28;20207;-55
2023/11/01 11:52:48;;;;;;;1.02;0.57;;;19.60;99.90;;;;;;5044881;28;20226;-54
2023/11/01 11:55:15;;;;;;;4.80;1.20;;;19.70;99.90;;;;;;5033432;28;20643;-54
2023/11/01 11:57:42;;;;;;;2.30;0.95;;;19.70;99.90;;;;;;5041775;28;20225;-54
2023/11/01 12:00:11;;;;;;;2.33;0.90;;;19.70;99.90;;;;;;5044078;28;20690;-54
2023/11/01 12:02:38;;;;;;;2.38;1.20;;;19.60;99.90;;;;;;5044626;28;20729;-57
2023/11/01 12:05:07;;;;;;;1.30;0.63;;;19.50;99.90;;;;;;5032358;28;20241;-56
2023/11/01 12:07:42;;;;;;;1.85;0.93;;;19.60;99.90;;;;;;5045269;28;20205;-58
2023/11/01 12:10:10;;;;;;;1.25;0.68;;;19.60;99.90;;;;;;5041884;28;20256;-56
2023/11/01 12:12:37;;;;;;;1.65;0.93;;;19.50;99.90;;;;;;5041044;28;20261;-55
2023/11/01 12:15:06;;;;;;;2.55;1.20;;;19.50;99.90;;;;;;5042691;28;20293;-56
2023/11/01 12:17:34;;;;;;;1.23;0.60;;;19.60;99.90;;;;;;5044551;28;20702;-57
2023/11/01 12:20:01;;;;;;;1.70;0.90;;;19.70;99.90;;;;;;5042791;28;20210;-57
2023/11/01 12:22:34;;;;;;;2.38;0.93;;;19.80;99.90;;;;;;5041053;28;20222;-58
2023/11/01 12:25:00;;;;;;;6.00;4.30;;;19.80;99.90;;;;;;5042369;28;20217;-57
2023/11/01 12:27:32;;;;;;;5.03;2.95;;;19.90;99.90;;;;;;5044192;28;20296;-58
2023/11/01 12:30:00;;;;;;;9.98;5.57;;;20.00;99.90;;;;;;5042566;28;20618;-58
2023/11/01 12:32:33;;;;;;;2.67;2.03;;;20.20;99.90;;;;;;5040474;28;20233;-57
2023/11/01 12:35:05;;;;;;;1.92;0.95;;;20.40;99.90;;;;;;5041422;28;20667;-60
2023/11/01 12:37:34;;;;;;;3.25;1.02;;;20.70;99.90;;;;;;5044374;28;20237;-58
2023/11/01 12:40:05;;;;;;;2.25;0.80;;;20.90;99.90;;;;;;5043032;28;20237;-59
2023/11/01 12:42:33;;;;;;;4.15;0.90;;;21.10;99.90;;;;;;5040761;28;20781;-54
2023/11/01 12:45:00;;;;;;;0.82;0.50;;;21.30;99.90;;;;;;5042091;28;20213;-55
2023/11/01 12:47:28;;;;;;;1.73;0.98;;;21.40;99.90;;;;;;5044070;28;20198;-57
2023/11/01 12:49:58;;;;;;;1.90;0.77;;;21.50;99.90;;;;;;5043778;28;20560;-59
2023/11/01 12:52:25;;;;;;;3.97;3.33;;;21.40;99.90;;;;;;5040514;28;20226;-57
2023/11/01 12:54:53;;;;;;;4.75;2.33;;;21.10;99.90;;;;;;5040940;28;20247;-55